createdAt,value
2023-04-09T00:01:17.837Z,9.17
2023-04-09T00:03:44.412Z,9.19
2023-04-09T00:06:11.898Z,9.19
2023-04-09T00:08:38.323Z,9.21
2023-04-09T00:11:05.056Z,9.18
2023-04-09T00:13:39.338Z,9.15
2023-04-09T00:16:07.543Z,9.15
2023-04-09T00:18:34.124Z,9.16
2023-04-09T00:21:00.703Z,9.14
2023-04-09T00:23:27.529Z,9.12
2023-04-09T00:25:54.352Z,9.14
2023-04-09T00:28:20.880Z,9.16
2023-04-09T00:30:47.291Z,9.16
2023-04-09T00:33:13.916Z,9.16
2023-04-09T00:35:41.605Z,9.15
2023-04-09T00:38:08.085Z,9.17
2023-04-09T00:40:34.486Z,9.11
2023-04-09T00:43:01.184Z,9.14
2023-04-09T00:45:28.158Z,9.16
2023-04-09T00:47:54.649Z,9.12
2023-04-09T00:50:21.518Z,9.09
2023-04-09T00:52:48.089Z,9.12
2023-04-09T00:55:15.529Z,9.09
2023-04-09T00:57:42.073Z,9.11
2023-04-09T01:00:09.774Z,9.11
2023-04-09T01:02:36.877Z,9.13
2023-04-09T01:05:04.069Z,9.15
2023-04-09T01:07:47.455Z,9.14
2023-04-09T01:10:31.998Z,9.12
2023-04-09T01:12:58.499Z,9.11
2023-04-09T01:15:27.200Z,9.09
2023-04-09T01:18:03.032Z,9.04
2023-04-09T01:20:35.499Z,9.06
2023-04-09T01:23:18.782Z,9.03
2023-04-09T01:25:59.678Z,9.02
2023-04-09T01:28:32.213Z,9.04
2023-04-09T01:31:03.060Z,9.03
2023-04-09T01:33:31.466Z,9.01
2023-04-09T01:36:00.026Z,9.02
2023-04-09T01:38:27.655Z,9.00
2023-04-09T01:40:56.508Z,8.99
2023-04-09T01:43:25.200Z,8.97
2023-04-09T01:45:51.938Z,9.00
2023-04-09T01:48:19.613Z,9.01
2023-04-09T01:50:46.837Z,9.01
2023-04-09T01:53:13.860Z,9.02
2023-04-09T01:55:40.260Z,8.99
2023-04-09T01:58:06.758Z,9.03
2023-04-09T02:00:39.989Z,9.05
2023-04-09T02:03:12.600Z,9.01
2023-04-09T02:05:44.614Z,9.03
2023-04-09T02:08:13.426Z,9.04
2023-04-09T02:10:40.683Z,9.03
2023-04-09T02:13:12.611Z,9.06
2023-04-09T02:15:40.389Z,9.04
2023-04-09T02:18:21.319Z,9.06
2023-04-09T02:20:47.738Z,9.07
2023-04-09T02:23:16.060Z,9.04
2023-04-09T02:25:44.192Z,9.03
2023-04-09T02:28:10.668Z,9.03
2023-04-09T02:30:37.237Z,9.01
2023-04-09T02:33:03.813Z,9.04
2023-04-09T02:35:30.411Z,9.06
2023-04-09T02:37:57.007Z,9.06
2023-04-09T02:40:23.513Z,9.03
2023-04-09T02:42:52.012Z,9.02
2023-04-09T02:45:18.716Z,9.03
2023-04-09T02:47:45.226Z,9.02
2023-04-09T02:50:11.686Z,8.98
2023-04-09T02:52:38.063Z,9.00
2023-04-09T02:55:04.980Z,9.05
2023-04-09T02:57:33.778Z,9.08
2023-04-09T03:00:00.594Z,9.05
2023-04-09T03:02:27.499Z,9.09
2023-04-09T03:04:54.170Z,9.06
2023-04-09T03:07:20.609Z,9.09
2023-04-09T03:09:46.989Z,9.06
2023-04-09T03:12:13.399Z,9.02
2023-04-09T03:14:39.901Z,8.99
2023-04-09T03:17:06.508Z,8.98
2023-04-09T03:19:33.022Z,9.00
2023-04-09T03:21:59.440Z,9.00
2023-04-09T03:24:25.864Z,9.03
2023-04-09T03:26:52.230Z,9.01
2023-04-09T03:29:19.752Z,8.97
2023-04-09T03:31:46.108Z,8.94
2023-04-09T03:34:12.504Z,8.94
2023-04-09T03:36:39.025Z,8.96
2023-04-09T03:39:05.586Z,8.96
2023-04-09T03:41:32.024Z,8.94
2023-04-09T03:43:58.412Z,8.94
2023-04-09T03:46:25.585Z,8.92
2023-04-09T03:48:52.203Z,8.92
2023-04-09T03:51:18.892Z,8.91
2023-04-09T03:53:45.468Z,8.90
2023-04-09T03:56:11.987Z,8.89
2023-04-09T03:58:47.740Z,8.87
2023-04-09T04:01:14.333Z,8.89
2023-04-09T04:03:41.093Z,8.90
2023-04-09T04:06:07.764Z,8.86
2023-04-09T04:08:34.216Z,8.90
2023-04-09T04:11:10.421Z,8.90
2023-04-09T04:13:42.658Z,8.89
2023-04-09T04:16:10.293Z,8.90
2023-04-09T04:18:36.950Z,8.89
2023-04-09T04:21:03.710Z,8.93
2023-04-09T04:23:30.219Z,8.93
2023-04-09T04:25:58.109Z,8.92
2023-04-09T04:28:24.600Z,8.88
2023-04-09T04:30:51.238Z,8.87
2023-04-09T04:33:17.696Z,8.83
2023-04-09T04:35:44.208Z,8.82
2023-04-09T04:38:13.538Z,8.83
2023-04-09T04:40:47.479Z,8.83
2023-04-09T04:43:26.273Z,8.81
2023-04-09T04:45:53.660Z,8.83
2023-04-09T04:48:20.459Z,8.81
2023-04-09T04:50:47.038Z,8.83
2023-04-09T04:53:13.440Z,8.82
2023-04-09T04:55:48.298Z,8.81
2023-04-09T04:58:14.984Z,8.80
2023-04-09T05:00:41.437Z,8.80
2023-04-09T05:03:07.906Z,8.81
2023-04-09T05:05:34.470Z,8.81
2023-04-09T05:08:09.231Z,8.82
2023-04-09T05:10:43.827Z,8.84
2023-04-09T05:13:10.330Z,8.82
2023-04-09T05:15:41.269Z,8.80
2023-04-09T05:18:08.496Z,8.79
2023-04-09T05:20:35.202Z,8.80
2023-04-09T05:23:01.922Z,8.81
2023-04-09T05:25:28.514Z,8.80
2023-04-09T05:27:55.492Z,8.78
2023-04-09T05:30:22.162Z,8.77
2023-04-09T05:32:48.612Z,8.76
2023-04-09T05:35:15.082Z,8.77
2023-04-09T05:37:41.576Z,8.78
2023-04-09T05:40:08.754Z,8.79
2023-04-09T05:42:36.005Z,8.81
2023-04-09T05:45:02.977Z,8.81
2023-04-09T05:47:29.437Z,8.80
2023-04-09T05:49:56.138Z,8.77
2023-04-09T05:52:22.593Z,8.79
2023-04-09T05:54:49.248Z,8.74
2023-04-09T05:57:15.913Z,8.71
2023-04-09T05:59:42.237Z,8.71
2023-04-09T06:02:08.904Z,8.73
2023-04-09T06:04:35.432Z,8.75
2023-04-09T06:07:02.633Z,8.74
2023-04-09T06:09:29.365Z,8.77
2023-04-09T06:12:10.761Z,8.80
2023-04-09T06:14:37.673Z,8.82
2023-04-09T06:17:08.374Z,8.87
2023-04-09T06:19:35.228Z,8.85
2023-04-09T06:22:01.807Z,8.87
2023-04-09T06:24:28.393Z,8.88
2023-04-09T06:26:54.992Z,8.88
2023-04-09T06:29:24.194Z,8.91
2023-04-09T06:31:50.818Z,8.94
2023-04-09T06:34:17.208Z,8.96
2023-04-09T06:36:44.588Z,9.01
2023-04-09T06:39:11.113Z,9.06
2023-04-09T06:41:37.597Z,9.08
2023-04-09T06:44:04.118Z,9.09
2023-04-09T06:46:30.601Z,9.13
2023-04-09T06:48:57.048Z,9.17
2023-04-09T06:51:23.613Z,9.25
2023-04-09T06:53:50.238Z,9.31
2023-04-09T06:56:16.876Z,9.32
2023-04-09T06:58:43.277Z,9.34
2023-04-09T07:01:10.208Z,9.39
2023-04-09T07:03:36.970Z,9.43
2023-04-09T07:06:04.298Z,9.47
2023-04-09T07:08:30.926Z,9.43
2023-04-09T07:10:57.444Z,9.52
2023-04-09T07:13:24.021Z,9.65
2023-04-09T07:15:50.473Z,9.93
2023-04-09T07:18:17.062Z,10.62
2023-04-09T07:20:46.652Z,10.98
2023-04-09T07:23:13.209Z,11.50
2023-04-09T07:25:39.758Z,11.58
2023-04-09T07:28:06.368Z,11.41
2023-04-09T07:30:32.885Z,11.23
2023-04-09T07:32:59.525Z,11.35
2023-04-09T07:35:26.231Z,11.80
2023-04-09T07:37:52.707Z,11.84
2023-04-09T07:40:19.932Z,11.83
2023-04-09T07:42:46.372Z,12.03
2023-04-09T07:48:02.656Z,12.59
2023-04-09T07:50:29.930Z,12.80
2023-04-09T07:52:56.424Z,12.83
2023-04-09T07:55:22.975Z,13.17
2023-04-09T07:57:49.378Z,13.18
2023-04-09T08:00:16.442Z,13.08
2023-04-09T08:02:43.932Z,13.03
2023-04-09T08:05:10.979Z,13.01
2023-04-09T08:07:37.559Z,13.10
2023-04-09T08:10:04.818Z,13.61
2023-04-09T08:12:31.193Z,14.00
2023-04-09T08:14:57.711Z,14.25
2023-04-09T08:17:24.708Z,14.75
2023-04-09T08:19:51.409Z,14.72
2023-04-09T08:22:18.074Z,14.59
2023-04-09T08:24:44.642Z,14.70
2023-04-09T08:27:11.212Z,14.26
2023-04-09T08:29:38.746Z,14.01
2023-04-09T08:32:05.394Z,14.26
2023-04-09T08:34:31.767Z,14.65
2023-04-09T08:36:58.397Z,15.08
2023-04-09T08:39:25.367Z,15.17
2023-04-09T08:41:52.320Z,15.48
2023-04-09T08:44:19.065Z,15.64
2023-04-09T08:46:45.450Z,15.56
2023-04-09T08:49:17.903Z,15.95
2023-04-09T08:51:48.621Z,16.39
2023-04-09T08:54:17.304Z,16.99
2023-04-09T08:56:43.842Z,17.50
2023-04-09T08:59:10.219Z,17.32
2023-04-09T09:01:36.964Z,16.47
2023-04-09T09:04:08.286Z,16.20
2023-04-09T09:06:37.307Z,16.45
2023-04-09T09:09:08.026Z,16.95
2023-04-09T09:11:40.459Z,17.39
2023-04-09T09:14:09.114Z,17.58
2023-04-09T09:16:43.550Z,17.82
2023-04-09T09:19:28.714Z,17.99
2023-04-09T09:21:59.887Z,17.84
2023-04-09T09:24:26.408Z,17.91
2023-04-09T09:26:54.635Z,17.80
2023-04-09T09:29:22.326Z,17.89
2023-04-09T09:31:56.554Z,18.21
2023-04-09T09:34:24.771Z,18.28
2023-04-09T09:36:51.337Z,18.31
2023-04-09T09:39:17.981Z,18.30
2023-04-09T09:41:46.000Z,18.26
2023-04-09T09:44:30.246Z,17.77
2023-04-09T09:46:58.681Z,17.94
2023-04-09T09:49:25.336Z,18.24
2023-04-09T09:51:53.379Z,18.65
2023-04-09T09:54:25.280Z,19.20
2023-04-09T09:56:55.981Z,19.55
2023-04-09T09:59:31.004Z,19.07
2023-04-09T10:02:02.351Z,18.80
2023-04-09T10:04:33.435Z,18.86
2023-04-09T10:07:04.086Z,19.65
2023-04-09T10:09:31.254Z,20.20
2023-04-09T10:11:59.353Z,20.10
2023-04-09T10:14:27.517Z,19.52
2023-04-09T10:16:54.064Z,19.70
2023-04-09T10:19:22.452Z,20.03
2023-04-09T10:22:04.454Z,20.23
2023-04-09T10:24:31.806Z,19.74
2023-04-09T10:27:15.708Z,18.82
2023-04-09T10:29:47.990Z,19.48
2023-04-09T10:32:26.887Z,19.88
2023-04-09T10:34:57.733Z,19.57
2023-04-09T10:37:26.089Z,19.83
2023-04-09T10:39:53.670Z,19.71
2023-04-09T10:42:42.049Z,18.89
2023-04-09T10:45:11.998Z,18.59
2023-04-09T10:47:40.684Z,18.83
2023-04-09T10:50:18.749Z,18.94
2023-04-09T10:52:46.026Z,19.00
2023-04-09T10:55:34.540Z,19.59
2023-04-09T10:58:00.949Z,19.67
2023-04-09T11:00:27.518Z,20.38
2023-04-09T11:03:03.215Z,20.47
2023-04-09T11:05:33.988Z,19.84
2023-04-09T11:08:06.576Z,19.04
2023-04-09T11:10:34.211Z,18.76
2023-04-09T11:13:01.491Z,18.31
2023-04-09T11:15:28.538Z,18.11
2023-04-09T11:17:55.615Z,18.08
2023-04-09T11:20:24.525Z,17.92
2023-04-09T11:22:56.163Z,17.64
2023-04-09T11:25:25.725Z,17.25
2023-04-09T11:27:52.950Z,16.81
2023-04-09T11:30:20.308Z,16.79
2023-04-09T11:32:53.202Z,17.04
2023-04-09T11:35:21.454Z,17.22
2023-04-09T11:37:50.049Z,17.35
2023-04-09T11:40:21.964Z,17.62
2023-04-09T11:42:50.205Z,17.95
2023-04-09T11:45:17.626Z,18.42
2023-04-09T11:47:45.195Z,18.52
2023-04-09T11:50:13.965Z,18.33
2023-04-09T11:52:41.457Z,17.51
2023-04-09T11:55:09.598Z,17.08
2023-04-09T11:57:47.055Z,16.77
2023-04-09T12:00:17.679Z,16.71
2023-04-09T12:02:49.391Z,16.87
2023-04-09T12:05:24.863Z,17.08
2023-04-09T12:10:30.491Z,17.16
2023-04-09T12:13:03.176Z,17.10
2023-04-09T12:15:34.868Z,17.15
2023-04-09T12:18:01.993Z,17.27
2023-04-09T12:20:49.750Z,17.63
2023-04-09T12:23:16.643Z,17.75
2023-04-09T12:25:45.275Z,17.95
2023-04-09T12:28:17.980Z,17.84
2023-04-09T12:30:44.907Z,18.07
2023-04-09T12:33:11.650Z,17.96
2023-04-09T12:35:38.626Z,17.88
2023-04-09T12:38:05.653Z,17.92
2023-04-09T12:40:32.281Z,17.66
2023-04-09T12:42:59.146Z,17.65
2023-04-09T12:48:06.545Z,17.58
2023-04-09T12:50:33.338Z,17.77
2023-04-09T12:53:03.588Z,17.82
2023-04-09T12:55:30.052Z,17.99
2023-04-09T12:57:56.705Z,17.97
2023-04-09T13:00:23.145Z,18.02
2023-04-09T13:02:49.937Z,18.11
2023-04-09T13:05:16.474Z,17.78
2023-04-09T13:07:43.567Z,17.35
2023-04-09T13:10:10.578Z,17.27
2023-04-09T13:12:37.430Z,17.64
2023-04-09T13:15:04.213Z,17.63
2023-04-09T13:17:30.638Z,17.59
2023-04-09T13:19:57.111Z,17.70
2023-04-09T13:22:23.521Z,17.45
2023-04-09T13:24:50.092Z,17.40
2023-04-09T13:27:17.330Z,17.45
2023-04-09T13:29:43.799Z,17.59
2023-04-09T13:34:51.363Z,17.74
2023-04-09T13:37:17.841Z,17.83
2023-04-09T13:39:45.424Z,17.77
2023-04-09T13:42:13.951Z,17.95
2023-04-09T13:44:42.731Z,17.83
2023-04-09T13:47:11.410Z,17.65
2023-04-09T13:49:38.056Z,17.67
2023-04-09T13:52:05.032Z,17.61
2023-04-09T13:54:32.201Z,17.51
2023-04-09T13:56:58.759Z,17.61
2023-04-09T13:59:25.402Z,17.61
2023-04-09T14:01:52.181Z,17.60
2023-04-09T14:04:19.365Z,17.29
2023-04-09T14:06:46.870Z,17.25
2023-04-09T14:09:13.389Z,17.27
2023-04-09T14:11:39.770Z,17.17
2023-04-09T14:14:06.400Z,17.01
2023-04-09T14:16:33.067Z,16.96
2023-04-09T14:18:59.807Z,16.81
2023-04-09T14:21:27.063Z,16.68
2023-04-09T14:23:53.672Z,16.27
2023-04-09T14:26:21.645Z,16.30
2023-04-09T14:28:49.572Z,16.39
2023-04-09T14:31:20.266Z,16.56
2023-04-09T14:33:47.719Z,16.70
2023-04-09T14:36:14.491Z,16.60
2023-04-09T14:38:40.963Z,16.42
2023-04-09T14:41:10.032Z,16.47
2023-04-09T14:43:36.531Z,16.27
2023-04-09T14:46:04.077Z,16.11
2023-04-09T14:48:30.664Z,16.25
2023-04-09T14:50:57.248Z,16.39
2023-04-09T14:53:23.820Z,16.55
2023-04-09T14:55:50.446Z,16.59
2023-04-09T14:58:17.285Z,16.48
2023-04-09T15:00:45.173Z,16.58
2023-04-09T15:03:11.957Z,16.41
2023-04-09T15:05:38.854Z,16.37
2023-04-09T15:08:05.701Z,16.25
2023-04-09T15:10:32.316Z,16.24
2023-04-09T15:13:07.949Z,16.27
2023-04-09T15:15:34.508Z,16.32
2023-04-09T15:18:09.876Z,16.44
2023-04-09T15:20:40.494Z,16.42
2023-04-09T15:23:06.990Z,16.23
2023-04-09T15:25:33.400Z,16.28
2023-04-09T15:28:00.014Z,16.37
2023-04-09T15:30:26.559Z,16.31
2023-04-09T15:32:53.232Z,16.25
2023-04-09T15:35:25.013Z,16.08
2023-04-09T15:37:52.296Z,15.99
2023-04-09T15:40:19.202Z,16.07
2023-04-09T15:42:45.939Z,16.17
2023-04-09T15:45:14.696Z,16.32
2023-04-09T15:47:47.033Z,16.20
2023-04-09T15:50:14.583Z,15.88
2023-04-09T15:52:41.355Z,15.74
2023-04-09T15:55:08.573Z,15.69
2023-04-09T15:57:35.195Z,15.60
2023-04-09T16:00:01.895Z,15.63
2023-04-09T16:02:28.586Z,15.56
2023-04-09T16:04:55.689Z,15.51
2023-04-09T16:07:22.130Z,15.55
2023-04-09T16:09:49.018Z,15.64
2023-04-09T16:12:15.438Z,15.78
2023-04-09T16:14:42.339Z,15.78
2023-04-09T16:17:08.941Z,15.65
2023-04-09T16:19:39.471Z,15.65
2023-04-09T16:22:06.494Z,15.57
2023-04-09T16:24:33.008Z,15.51
2023-04-09T16:26:59.394Z,15.42
2023-04-09T16:29:25.953Z,15.24
2023-04-09T16:31:52.992Z,15.17
2023-04-09T16:34:19.920Z,15.11
2023-04-09T16:36:46.376Z,15.11
2023-04-09T16:39:15.626Z,14.94
2023-04-09T16:41:43.461Z,14.92
2023-04-09T16:44:10.538Z,14.81
2023-04-09T16:46:36.952Z,14.79
2023-04-09T16:49:03.453Z,14.79
2023-04-09T16:51:29.954Z,14.75
2023-04-09T16:53:56.518Z,14.82
2023-04-09T16:56:41.398Z,14.88
2023-04-09T16:59:08.167Z,14.91
2023-04-09T17:01:41.162Z,14.96
2023-04-09T17:04:07.881Z,14.94
2023-04-09T17:06:34.446Z,14.81
2023-04-09T17:09:01.423Z,14.80
2023-04-09T17:11:28.270Z,14.73
2023-04-09T17:13:55.049Z,14.71
2023-04-09T17:16:22.019Z,14.61
2023-04-09T17:18:48.755Z,14.58
2023-04-09T17:21:15.621Z,14.58
2023-04-09T17:23:42.752Z,14.60
2023-04-09T17:26:09.223Z,14.51
2023-04-09T17:28:36.147Z,14.53
2023-04-09T17:31:02.713Z,14.53
2023-04-09T17:33:29.266Z,14.41
2023-04-09T17:35:57.562Z,14.34
2023-04-09T17:38:25.301Z,14.26
2023-04-09T17:40:53.275Z,14.20
2023-04-09T17:43:19.703Z,14.17
2023-04-09T17:45:46.336Z,14.17
2023-04-09T17:48:12.744Z,14.11
2023-04-09T17:50:39.261Z,14.07
2023-04-09T17:53:05.651Z,14.01
2023-04-09T17:55:32.254Z,13.93
2023-04-09T17:57:58.715Z,13.82
2023-04-09T18:00:25.206Z,13.76
2023-04-09T18:02:53.258Z,13.67
2023-04-09T18:05:20.361Z,13.61
2023-04-09T18:07:46.970Z,13.54
2023-04-09T18:10:13.421Z,13.49
2023-04-09T18:12:39.955Z,13.46
2023-04-09T18:15:07.192Z,13.39
2023-04-09T18:17:33.821Z,13.33
2023-04-09T18:20:00.446Z,13.30
2023-04-09T18:22:27.401Z,13.31
2023-04-09T18:24:54.496Z,13.25
2023-04-09T18:27:21.587Z,13.20
2023-04-09T18:29:51.097Z,13.13
2023-04-09T18:32:19.379Z,13.10
2023-04-09T18:34:47.017Z,13.00
2023-04-09T18:37:14.596Z,12.95
2023-04-09T18:39:41.559Z,12.92
2023-04-09T18:42:08.128Z,12.92
2023-04-09T18:44:36.340Z,12.86
2023-04-09T18:47:05.925Z,12.80
2023-04-09T18:49:33.433Z,12.73
2023-04-09T18:52:00.294Z,12.67
2023-04-09T18:54:26.912Z,12.60
2023-04-09T18:56:53.575Z,12.54
2023-04-09T18:59:19.986Z,12.45
2023-04-09T19:01:46.465Z,12.37
2023-04-09T19:04:13.053Z,12.30
2023-04-09T19:06:39.619Z,12.23
2023-04-09T19:09:06.836Z,12.15
2023-04-09T19:14:13.709Z,12.03
2023-04-09T19:16:40.182Z,11.95
2023-04-09T19:19:06.602Z,11.89
2023-04-09T19:21:33.859Z,11.82
2023-04-09T19:24:00.371Z,11.78
2023-04-09T19:26:27.183Z,11.75
2023-04-09T19:28:53.896Z,11.70
2023-04-09T19:31:20.726Z,11.64
2023-04-09T19:33:47.313Z,11.60
2023-04-09T19:36:14.004Z,11.52
2023-04-09T19:38:41.078Z,11.45
2023-04-09T19:41:07.646Z,11.38
2023-04-09T19:43:34.405Z,11.31
2023-04-09T19:46:05.986Z,11.22
2023-04-09T19:48:32.791Z,11.16
2023-04-09T19:50:59.201Z,11.08
2023-04-09T19:53:25.630Z,11.03
2023-04-09T19:56:00.853Z,10.95
2023-04-09T19:58:33.630Z,10.88
2023-04-09T20:01:00.044Z,10.81
2023-04-09T20:03:26.561Z,10.69
2023-04-09T20:05:53.576Z,10.65
2023-04-09T20:08:20.019Z,10.56
2023-04-09T20:10:47.246Z,10.52
2023-04-09T20:13:13.922Z,10.50
2023-04-09T20:15:40.355Z,10.46
2023-04-09T20:18:07.344Z,10.46
2023-04-09T20:20:35.186Z,10.38
2023-04-09T20:23:01.781Z,10.34
2023-04-09T20:25:34.316Z,10.29
2023-04-09T20:28:12.416Z,10.22
2023-04-09T20:30:38.802Z,10.22
2023-04-09T20:33:05.233Z,10.20
2023-04-09T20:35:35.300Z,10.10
2023-04-09T20:38:01.914Z,10.05
2023-04-09T20:40:28.676Z,9.98
2023-04-09T20:45:36.249Z,9.90
2023-04-09T20:48:02.963Z,9.88
2023-04-09T20:50:31.001Z,9.81
2023-04-09T20:52:58.735Z,9.75
2023-04-09T20:55:25.966Z,9.73
2023-04-09T20:57:53.937Z,9.65
2023-04-09T21:00:20.558Z,9.55
2023-04-09T21:02:47.221Z,9.48
2023-04-09T21:05:22.782Z,9.48
2023-04-09T21:07:51.680Z,9.47
2023-04-09T21:10:22.198Z,9.41
2023-04-09T21:12:48.867Z,9.36
2023-04-09T21:15:21.742Z,9.35
2023-04-09T21:17:48.214Z,9.32
2023-04-09T21:20:16.557Z,9.27
2023-04-09T21:22:43.182Z,9.25
2023-04-09T21:25:09.706Z,9.26
2023-04-09T21:27:36.208Z,9.26
2023-04-09T21:30:02.819Z,9.19
2023-04-09T21:32:29.319Z,9.15
2023-04-09T21:34:55.773Z,9.17
2023-04-09T21:37:22.616Z,9.15
2023-04-09T21:39:49.120Z,9.09
2023-04-09T21:42:15.737Z,9.01
2023-04-09T21:44:42.212Z,8.97
2023-04-09T21:47:09.630Z,8.94
2023-04-09T21:49:39.186Z,8.92
2023-04-09T21:52:10.818Z,8.86
2023-04-09T21:54:37.360Z,8.84
2023-04-09T21:57:03.917Z,8.82
2023-04-09T21:59:30.744Z,8.77
2023-04-09T22:01:57.290Z,8.74
2023-04-09T22:04:23.826Z,8.68
2023-04-09T22:06:50.344Z,8.66
2023-04-09T22:09:17.125Z,8.64
2023-04-09T22:11:43.514Z,8.62
2023-04-09T22:14:10.662Z,8.60
2023-04-09T22:16:37.017Z,8.59
2023-04-09T22:19:03.962Z,8.58
2023-04-09T22:21:37.584Z,8.60
2023-04-09T22:24:04.027Z,8.60
2023-04-09T22:26:31.539Z,8.61
2023-04-09T22:28:58.137Z,8.57
2023-04-09T22:31:27.343Z,8.51
2023-04-09T22:33:53.871Z,8.48
2023-04-09T22:36:20.371Z,8.45
2023-04-09T22:38:46.977Z,8.41
2023-04-09T22:41:13.547Z,8.37
2023-04-09T22:43:39.949Z,8.36
2023-04-09T22:46:07.316Z,8.32
2023-04-09T22:48:40.760Z,8.31
2023-04-09T22:51:11.321Z,8.30
2023-04-09T22:53:37.706Z,8.28
2023-04-09T22:56:04.270Z,8.25
2023-04-09T22:58:30.795Z,8.24
2023-04-09T23:00:57.554Z,8.21
2023-04-09T23:03:25.961Z,8.20
2023-04-09T23:05:58.764Z,8.16
2023-04-09T23:08:25.451Z,8.07
2023-04-09T23:10:51.926Z,8.05
2023-04-09T23:13:18.545Z,8.05
2023-04-09T23:15:45.044Z,8.06
2023-04-09T23:18:11.937Z,8.04
2023-04-09T23:20:38.443Z,8.03
2023-04-09T23:23:04.874Z,8.00
2023-04-09T23:25:31.721Z,8.02
2023-04-09T23:27:58.119Z,8.02
2023-04-09T23:30:24.836Z,8.04
2023-04-09T23:32:56.318Z,8.05
2023-04-09T23:35:23.899Z,8.01
2023-04-09T23:37:50.479Z,8.03
2023-04-09T23:40:19.824Z,8.01
2023-04-09T23:42:47.888Z,8.00
2023-04-09T23:45:14.866Z,7.96
2023-04-09T23:47:42.267Z,7.97
2023-04-09T23:50:09.250Z,7.94
2023-04-09T23:52:37.965Z,7.90
2023-04-09T23:55:08.863Z,7.87
2023-04-09T23:57:35.590Z,7.86
